KLGB/LGB METAR and TAF weather

Enter ICAO airport designator
Station Type Date Time Source
KLGB METAR 2019/05/26 22:53 UTC NOAA

KLGB 262253Z 17008KT 10SM BKN046 OVC070 16/09 A2997 RMK AO2 SLP149 T01560094


Station Type Date Time Source
KLGB Decoded METAR 2019/05/26 22:53 UTC NOAA

LONG BEACH AIRPORT, CA, United States (KLGB) 33-49N 118-09W 10M
May 26, 2019 - 06:53 PM EDT / 2019.05.26 2253 UTC
Wind: from the S (170 degrees) at 9 MPH (8 KT):0
Visibility: 10 mile(s):0
Sky conditions: overcast
Temperature: 60.1 F (15.6 C)
Dew Point: 48.9 F (9.4 C)
Relative Humidity: 66%
Pressure (altimeter): 29.97 in. Hg (1014 hPa)
ob: KLGB 262253Z 17008KT 10SM BKN046 OVC070 16/09 A2997 RMK AO2 SLP149 T01560094
cycle: 23

Station Type Date Time Source
KLGB TAF 2019/05/26 22:18 UTC NOAA

TAF
AMD KLGB 262215Z 2622/2718 19008KT P6SM OVC050
FM270000 23012KT P6SM VCSH BKN025 BKN060
FM270300 30010KT P6SM SCT060
FM271200 VRB03KT P6SM SCT150

Example: see airport list